Time;durP1;ratioP1;P1;durP2;ratioP2;P2;SDS_P1;SDS_P2;PMS_P1;PMS_P2;Temp;Humidity;BMP_temperature;BMP_pressure;BME280_temperature;BME280_humidity;BME280_pressure;Samples;Min_cycle;Max_cycle;Signal;HPM_P1;HPM_P2
2023/12/24 00:00:39;;;;;;;59.55;31.98;;;16.20;99.90;;;;;;4946219;29;20043;-71
2023/12/24 00:03:05;;;;;;;72.25;31.25;;;15.90;99.90;;;;;;4945511;29;20044;-71
2023/12/24 00:05:30;;;;;;;61.03;31.38;;;16.60;99.90;;;;;;4949946;28;20505;-70
2023/12/24 00:07:56;;;;;;;61.55;31.02;;;15.70;99.90;;;;;;4951186;29;20497;-71
2023/12/24 00:10:22;;;;;;;58.13;31.65;;;15.90;99.90;;;;;;4950424;29;20118;-71
2023/12/24 00:12:47;;;;;;;66.75;30.95;;;16.70;99.90;;;;;;4950090;29;20079;-71
2023/12/24 00:15:15;;;;;;;59.00;29.10;;;16.70;99.90;;;;;;4949854;29;20051;-71
2023/12/24 00:17:40;;;;;;;54.03;29.48;;;16.10;99.90;;;;;;4948776;28;20059;-71
2023/12/24 00:20:07;;;;;;;56.65;29.77;;;16.10;99.90;;;;;;4949682;29;20122;-71
2023/12/24 00:22:33;;;;;;;68.50;31.13;;;15.50;99.90;;;;;;4949362;29;20505;-70
2023/12/24 00:24:58;;;;;;;63.33;31.88;;;16.60;99.90;;;;;;4949377;29;20047;-71
2023/12/24 00:27:24;;;;;;;60.83;30.83;;;15.70;99.90;;;;;;4950704;29;20055;-72
2023/12/24 00:29:49;;;;;;;70.78;32.05;;;15.90;99.90;;;;;;4949334;29;20058;-72
2023/12/24 00:32:16;;;;;;;65.30;30.65;;;16.40;99.90;;;;;;4949778;29;20477;-72
2023/12/24 00:34:42;;;;;;;66.95;30.63;;;16.80;99.90;;;;;;4948533;29;20054;-72
2023/12/24 00:37:08;;;;;;;57.97;30.27;;;16.70;99.90;;;;;;4933364;29;20047;-74
2023/12/24 00:39:33;;;;;;;67.45;29.98;;;16.40;99.90;;;;;;4950486;28;20055;-71
2023/12/24 00:41:59;;;;;;;65.65;29.80;;;15.60;99.90;;;;;;4949084;29;20123;-71
2023/12/24 00:44:25;;;;;;;66.32;30.75;;;16.70;99.90;;;;;;4950813;29;20039;-71
2023/12/24 00:46:50;;;;;;;60.35;32.20;;;16.40;99.90;;;;;;4948713;29;20147;-72
2023/12/24 00:49:16;;;;;;;62.70;31.23;;;16.60;99.90;;;;;;4949266;29;20473;-70
2023/12/24 00:51:42;;;;;;;58.47;32.45;;;16.00;99.90;;;;;;4937499;29;20076;-72
2023/12/24 00:54:08;;;;;;;62.35;30.90;;;15.70;99.90;;;;;;4948279;29;20047;-73
2023/12/24 00:56:34;;;;;;;56.22;31.67;;;15.70;99.90;;;;;;4948417;29;20126;-70
2023/12/24 00:58:59;;;;;;;59.45;30.60;;;15.60;99.90;;;;;;4932739;29;20043;-71
2023/12/24 01:01:25;;;;;;;63.22;30.90;;;16.90;99.90;;;;;;4948784;29;20097;-71
2023/12/24 01:03:50;;;;;;;54.97;32.25;;;16.80;99.90;;;;;;4950390;28;20046;-72
2023/12/24 01:06:16;;;;;;;52.40;32.72;;;16.20;99.90;;;;;;4950768;29;20386;-71
2023/12/24 01:08:41;;;;;;;49.78;32.67;;;17.00;99.90;;;;;;4932683;29;20468;-71
2023/12/24 01:11:07;;;;;;;63.03;33.95;;;17.00;99.90;;;;;;4948122;29;20082;-72
2023/12/24 01:13:33;;;;;;;57.28;30.05;;;15.70;99.90;;;;;;4949005;29;20053;-70
2023/12/24 01:16:01;;;;;;;53.38;30.30;;;16.00;99.90;;;;;;4948796;28;20441;-71
2023/12/24 01:18:27;;;;;;;60.47;31.38;;;16.10;99.90;;;;;;4948029;28;20098;-70
2023/12/24 01:20:52;;;;;;;51.67;28.80;;;15.60;99.90;;;;;;4948620;29;20094;-71
2023/12/24 01:23:18;;;;;;;59.83;31.65;;;16.90;99.90;;;;;;4948801;29;20039;-71
2023/12/24 01:25:43;;;;;;;56.45;32.35;;;16.90;99.90;;;;;;4948508;29;20043;-72
2023/12/24 01:28:09;;;;;;;56.25;30.90;;;16.90;99.90;;;;;;4948362;29;20040;-71
2023/12/24 01:30:34;;;;;;;49.05;31.60;;;16.50;99.90;;;;;;4949624;29;20050;-72
2023/12/24 01:33:00;;;;;;;54.47;31.60;;;17.10;99.90;;;;;;4950221;28;20557;-72
2023/12/24 01:35:26;;;;;;;55.17;30.35;;;16.10;99.90;;;;;;4948293;29;20155;-70
2023/12/24 01:37:51;;;;;;;51.00;28.80;;;16.40;99.90;;;;;;4948282;29;20070;-71
2023/12/24 01:40:17;;;;;;;52.75;29.73;;;16.40;99.90;;;;;;4948251;29;20383;-72
2023/12/24 01:42:44;;;;;;;50.78;31.30;;;15.60;99.90;;;;;;4950224;28;20539;-70
2023/12/24 01:45:10;;;;;;;56.45;31.95;;;15.70;99.90;;;;;;4948290;29;20413;-71
2023/12/24 01:47:36;;;;;;;56.40;31.42;;;15.60;99.90;;;;;;4948387;29;20050;-70
2023/12/24 01:50:03;;;;;;;49.22;31.27;;;16.90;99.90;;;;;;4949463;29;20557;-71
2023/12/24 01:52:29;;;;;;;52.35;31.38;;;17.00;99.90;;;;;;4947898;29;20047;-71
2023/12/24 01:54:54;;;;;;;52.03;30.17;;;15.70;99.90;;;;;;4947608;29;20419;-71
2023/12/24 01:57:20;;;;;;;56.65;31.63;;;16.10;99.90;;;;;;4947956;29;20046;-71
2023/12/24 01:59:46;;;;;;;58.22;29.98;;;17.00;99.90;;;;;;4947748;29;20130;-71
2023/12/24 02:02:12;;;;;;;59.55;31.42;;;16.30;99.90;;;;;;4948955;28;20417;-72
2023/12/24 02:04:38;;;;;;;52.15;29.65;;;16.90;99.90;;;;;;4933149;29;20051;-71
2023/12/24 02:07:05;;;;;;;57.00;32.17;;;15.70;99.90;;;;;;4936308;29;20049;-70
2023/12/24 02:09:31;;;;;;;62.95;32.50;;;17.10;99.90;;;;;;4948909;29;20055;-70
2023/12/24 02:11:56;;;;;;;62.83;32.53;;;16.20;99.90;;;;;;4948613;29;20383;-71
2023/12/24 02:14:22;;;;;;;60.42;30.13;;;15.70;99.90;;;;;;4947387;29;20043;-71
2023/12/24 02:16:50;;;;;;;52.50;30.33;;;17.10;99.90;;;;;;4931609;29;20050;-70
2023/12/24 02:19:18;;;;;;;53.17;30.45;;;16.60;99.90;;;;;;4947264;28;20410;-71
2023/12/24 02:21:44;;;;;;;59.88;29.92;;;16.60;99.90;;;;;;4946241;29;20051;-71
2023/12/24 02:24:10;;;;;;;57.45;31.23;;;15.60;99.90;;;;;;4949095;29;20047;-71
2023/12/24 02:26:41;;;;;;;60.97;32.92;;;15.80;99.90;;;;;;4947594;29;20058;-71
2023/12/24 02:29:17;;;;;;;65.97;31.52;;;15.70;99.90;;;;;;4947152;28;20047;-71
2023/12/24 02:31:45;;;;;;;60.78;30.88;;;15.80;99.90;;;;;;4947189;29;20579;-71
2023/12/24 02:34:16;;;;;;;54.17;28.73;;;17.10;99.90;;;;;;4946907;29;20051;-69
2023/12/24 02:36:45;;;;;;;54.58;27.70;;;16.00;99.90;;;;;;4948275;29;20046;-70
2023/12/24 02:39:11;;;;;;;56.53;28.25;;;16.00;99.90;;;;;;4948488;28;20043;-70
2023/12/24 02:41:37;;;;;;;61.28;28.10;;;16.70;99.90;;;;;;4946684;29;20043;-71
2023/12/24 02:44:03;;;;;;;55.90;30.23;;;15.60;99.90;;;;;;4946746;29;20058;-70
2023/12/24 02:46:28;;;;;;;55.58;29.70;;;15.80;99.90;;;;;;4948762;28;20154;-72
2023/12/24 02:48:54;;;;;;;50.08;29.67;;;15.90;99.90;;;;;;4947339;29;20043;-71
2023/12/24 02:51:19;;;;;;;52.85;28.77;;;15.80;99.90;;;;;;4947544;29;20047;-71
2023/12/24 02:53:45;;;;;;;55.10;28.95;;;17.10;99.90;;;;;;4946443;29;20062;-71
2023/12/24 02:56:11;;;;;;;49.90;28.92;;;16.90;99.90;;;;;;4947878;28;20039;-70
2023/12/24 02:58:36;;;;;;;41.78;27.58;;;15.70;99.90;;;;;;4946392;29;20130;-72
2023/12/24 03:01:02;;;;;;;46.72;27.10;;;16.80;99.90;;;;;;4946701;29;20192;-70
2023/12/24 03:03:28;;;;;;;46.08;27.08;;;16.60;99.90;;;;;;4946846;29;20047;-71
2023/12/24 03:05:53;;;;;;;41.25;28.40;;;16.60;99.90;;;;;;4947122;29;20054;-71
2023/12/24 03:08:19;;;;;;;42.22;27.77;;;16.90;99.90;;;;;;4947036;29;20409;-71
2023/12/24 03:10:44;;;;;;;50.95;28.02;;;15.90;99.90;;;;;;4946880;29;20102;-71
2023/12/24 03:13:10;;;;;;;42.13;27.00;;;16.90;99.90;;;;;;4946506;29;20047;-71
2023/12/24 03:15:35;;;;;;;37.00;25.98;;;16.70;99.90;;;;;;4947797;28;20047;-70
2023/12/24 03:18:01;;;;;;;42.90;26.42;;;17.10;99.90;;;;;;4945919;28;20055;-71
2023/12/24 03:20:27;;;;;;;45.28;26.88;;;16.10;99.90;;;;;;4946513;29;20086;-70
2023/12/24 03:22:52;;;;;;;41.53;25.17;;;16.80;99.90;;;;;;4948149;28;20116;-71
2023/12/24 03:25:18;;;;;;;37.75;25.92;;;16.20;99.90;;;;;;4946687;29;20058;-70
2023/12/24 03:27:43;;;;;;;37.05;27.30;;;16.00;99.90;;;;;;4946430;29;20058;-71
2023/12/24 03:30:09;;;;;;;38.53;26.40;;;16.00;99.90;;;;;;4946010;29;20046;-70
2023/12/24 03:32:35;;;;;;;40.40;26.60;;;16.10;99.90;;;;;;4946089;29;20047;-72
2023/12/24 03:35:00;;;;;;;39.97;26.20;;;17.00;99.90;;;;;;4946088;29;20043;-70
2023/12/24 03:37:26;;;;;;;47.20;27.27;;;16.70;99.90;;;;;;4946525;29;20532;-71
2023/12/24 03:39:51;;;;;;;42.53;27.30;;;17.00;99.90;;;;;;4947766;28;20051;-72
2023/12/24 03:42:17;;;;;;;50.53;27.58;;;16.90;99.90;;;;;;4934157;29;20051;-71
2023/12/24 03:44:42;;;;;;;48.65;28.50;;;15.90;99.90;;;;;;4950455;29;20055;-71
2023/12/24 03:47:08;;;;;;;50.45;28.80;;;16.10;99.90;;;;;;4949950;29;20425;-70
2023/12/24 03:49:34;;;;;;;46.78;28.33;;;16.30;99.90;;;;;;4934255;29;20050;-72
2023/12/24 03:51:59;;;;;;;57.25;28.55;;;16.80;99.90;;;;;;4951304;29;20044;-72
2023/12/24 03:54:25;;;;;;;53.13;29.13;;;17.00;99.90;;;;;;4950047;29;20556;-71
2023/12/24 03:56:50;;;;;;;45.05;26.52;;;16.90;99.90;;;;;;4949877;29;20047;-70
2023/12/24 03:59:16;;;;;;;52.00;28.27;;;17.30;99.90;;;;;;4950251;29;20086;-71
2023/12/24 04:01:43;;;;;;;49.78;28.48;;;16.90;99.90;;;;;;4950470;28;20043;-70
2023/12/24 04:04:08;;;;;;;47.30;27.77;;;16.20;99.90;;;;;;4950883;28;20065;-71
2023/12/24 04:06:34;;;;;;;56.58;28.73;;;16.00;99.90;;;;;;4951483;29;20039;-70
2023/12/24 04:09:03;;;;;;;60.83;28.35;;;16.40;99.90;;;;;;4949774;29;20126;-71
2023/12/24 04:11:29;;;;;;;68.00;30.35;;;17.10;99.90;;;;;;4949225;29;20051;-69
2023/12/24 04:13:54;;;;;;;57.17;29.38;;;16.90;99.90;;;;;;4951066;28;20073;-71
2023/12/24 04:16:20;;;;;;;58.00;30.00;;;16.30;99.90;;;;;;4949030;29;20031;-70
2023/12/24 04:18:46;;;;;;;67.78;29.95;;;17.00;99.90;;;;;;4950577;28;20075;-71
2023/12/24 04:21:11;;;;;;;58.00;29.75;;;16.30;99.90;;;;;;4950406;28;20061;-71
2023/12/24 04:23:37;;;;;;;66.38;30.63;;;16.90;99.90;;;;;;4949045;29;20054;-71
2023/12/24 04:26:02;;;;;;;66.05;30.20;;;16.00;99.90;;;;;;4949849;29;20047;-71
2023/12/24 04:28:28;;;;;;;65.15;30.05;;;16.20;99.90;;;;;;4949789;29;20049;-71
2023/12/24 04:30:53;;;;;;;66.55;30.70;;;16.30;99.90;;;;;;4948879;29;20090;-72
2023/12/24 04:33:19;;;;;;;61.10;29.73;;;16.20;99.90;;;;;;4948886;29;20122;-71
2023/12/24 04:35:45;;;;;;;51.75;29.40;;;16.20;99.90;;;;;;4948864;29;20051;-71
2023/12/24 04:38:11;;;;;;;52.47;28.33;;;16.40;99.90;;;;;;4948785;29;20047;-70
2023/12/24 04:40:37;;;;;;;59.03;30.58;;;16.10;99.90;;;;;;4949015;29;20417;-71
2023/12/24 04:43:02;;;;;;;64.47;29.70;;;16.30;99.90;;;;;;4950497;29;20127;-70
2023/12/24 04:45:28;;;;;;;55.42;31.08;;;16.20;99.90;;;;;;4949379;29;20058;-70
2023/12/24 04:47:58;;;;;;;66.25;31.77;;;17.30;99.90;;;;;;4948573;29;20047;-71
2023/12/24 04:50:24;;;;;;;58.80;31.13;;;16.90;99.90;;;;;;4949924;28;20102;-72
2023/12/24 04:52:49;;;;;;;63.78;31.48;;;16.80;99.90;;;;;;4949301;29;20494;-71
2023/12/24 04:55:15;;;;;;;61.70;30.13;;;17.40;99.90;;;;;;4948663;29;20051;-70
2023/12/24 04:57:40;;;;;;;54.92;29.38;;;16.60;99.90;;;;;;4949214;29;20046;-71
2023/12/24 05:00:06;;;;;;;60.03;29.58;;;16.20;99.90;;;;;;4950913;28;20043;-71
2023/12/24 05:02:33;;;;;;;66.05;30.27;;;16.50;99.90;;;;;;4949251;29;20141;-71
2023/12/24 05:05:00;;;;;;;52.03;30.15;;;17.20;99.90;;;;;;4948199;29;20079;-71
2023/12/24 05:07:25;;;;;;;56.67;28.58;;;16.10;99.90;;;;;;4950139;28;20058;-71
2023/12/24 05:09:51;;;;;;;55.42;31.85;;;17.60;99.90;;;;;;4948323;29;20047;-70
2023/12/24 05:12:17;;;;;;;53.83;30.75;;;17.30;99.90;;;;;;4948717;29;20604;-71
2023/12/24 05:14:42;;;;;;;62.95;31.92;;;16.70;99.90;;;;;;4948435;29;20457;-71
2023/12/24 05:17:08;;;;;;;59.80;31.08;;;17.20;99.90;;;;;;4948045;29;20442;-71
2023/12/24 05:19:33;;;;;;;58.97;31.00;;;16.40;99.90;;;;;;4947842;28;20437;-71
2023/12/24 05:21:59;;;;;;;57.53;30.20;;;16.90;99.90;;;;;;4948352;29;20160;-71
2023/12/24 05:24:24;;;;;;;55.40;31.02;;;16.40;99.90;;;;;;4949480;29;20059;-72
2023/12/24 05:26:50;;;;;;;63.03;31.55;;;16.80;99.90;;;;;;4948472;29;20043;-69
2023/12/24 05:29:18;;;;;;;54.47;30.85;;;16.50;99.90;;;;;;4948505;29;20092;-70
2023/12/24 05:31:43;;;;;;;59.13;29.88;;;16.70;99.90;;;;;;4932461;29;20066;-72
2023/12/24 05:34:09;;;;;;;57.30;30.00;;;17.40;99.90;;;;;;4949190;29;20043;-71
2023/12/24 05:36:37;;;;;;;56.58;30.00;;;17.10;99.90;;;;;;4932497;29;20059;-72
2023/12/24 05:39:03;;;;;;;54.70;29.92;;;17.00;99.90;;;;;;4948661;29;20051;-71
2023/12/24 05:41:29;;;;;;;52.40;29.50;;;16.50;99.90;;;;;;4948437;29;20054;-71
2023/12/24 05:43:55;;;;;;;63.20;30.75;;;16.30;99.90;;;;;;4948081;29;20047;-72
2023/12/24 05:46:22;;;;;;;62.45;31.13;;;17.60;99.90;;;;;;4947703;29;20055;-72
2023/12/24 05:48:48;;;;;;;63.25;30.75;;;16.90;99.90;;;;;;4948962;28;20074;-71
2023/12/24 05:51:14;;;;;;;48.45;31.05;;;17.40;99.90;;;;;;4949033;28;20199;-71
2023/12/24 05:53:40;;;;;;;57.47;30.77;;;16.60;99.90;;;;;;4948070;29;20134;-72
2023/12/24 05:56:05;;;;;;;59.97;30.73;;;17.00;99.90;;;;;;4948913;28;20473;-71
2023/12/24 05:58:31;;;;;;;57.30;31.15;;;17.60;99.90;;;;;;4947274;29;20050;-71
2023/12/24 06:00:57;;;;;;;53.90;30.13;;;16.40;99.90;;;;;;4947474;29;20067;-71
2023/12/24 06:03:22;;;;;;;60.97;30.52;;;17.30;99.90;;;;;;4947718;28;20043;-71
2023/12/24 06:05:48;;;;;;;57.55;30.35;;;16.40;99.90;;;;;;4947174;29;20047;-71
2023/12/24 06:08:16;;;;;;;49.50;29.02;;;17.70;99.90;;;;;;4947393;29;20138;-72
2023/12/24 06:10:41;;;;;;;49.42;27.08;;;17.60;99.90;;;;;;4947758;29;20051;-70
2023/12/24 06:13:07;;;;;;;47.42;29.33;;;17.70;99.90;;;;;;4947607;29;20050;-71
2023/12/24 06:15:33;;;;;;;51.45;28.90;;;16.70;99.90;;;;;;4948337;28;20082;-72
2023/12/24 06:17:58;;;;;;;49.58;28.00;;;17.20;99.90;;;;;;4947254;28;20063;-71
2023/12/24 06:20:24;;;;;;;44.72;27.13;;;16.60;99.90;;;;;;4947471;29;20449;-72
2023/12/24 06:22:49;;;;;;;42.28;27.67;;;16.40;99.90;;;;;;4947552;29;20034;-72
2023/12/24 06:25:15;;;;;;;43.03;27.13;;;17.60;99.90;;;;;;4947228;29;20133;-69
2023/12/24 06:27:40;;;;;;;57.42;28.92;;;17.80;99.90;;;;;;4948636;28;20035;-71
2023/12/24 06:30:07;;;;;;;47.22;27.88;;;17.70;99.90;;;;;;4948291;29;20498;-71
2023/12/24 06:32:32;;;;;;;48.60;28.05;;;17.10;99.90;;;;;;4947057;28;20047;-72
2023/12/24 06:34:58;;;;;;;47.10;30.45;;;17.20;99.90;;;;;;4946521;29;20109;-71
2023/12/24 06:37:24;;;;;;;52.95;30.88;;;17.40;99.90;;;;;;4947637;29;20537;-72
2023/12/24 06:39:49;;;;;;;49.58;30.73;;;16.80;99.90;;;;;;4946629;29;20058;-71
2023/12/24 06:42:15;;;;;;;56.63;30.65;;;16.70;99.90;;;;;;4946630;29;20039;-73
2023/12/24 06:44:43;;;;;;;59.97;30.00;;;18.00;99.90;;;;;;4946804;29;20050;-71
2023/12/24 06:47:09;;;;;;;53.00;28.20;;;18.00;99.90;;;;;;4947385;29;20162;-71
2023/12/24 06:49:35;;;;;;;55.28;29.08;;;17.80;99.90;;;;;;4947669;28;20146;-72
2023/12/24 06:52:00;;;;;;;51.90;28.70;;;17.70;99.90;;;;;;4946843;29;20069;-72
2023/12/24 06:54:26;;;;;;;54.38;29.00;;;17.90;99.90;;;;;;4948127;29;20055;-72
2023/12/24 06:56:51;;;;;;;52.47;29.35;;;17.60;99.90;;;;;;4946844;29;20598;-72
2023/12/24 06:59:17;;;;;;;61.78;29.33;;;17.90;99.90;;;;;;4946103;29;20494;-71
2023/12/24 07:01:42;;;;;;;48.05;27.65;;;17.00;99.90;;;;;;4946589;29;20541;-72
2023/12/24 07:04:08;;;;;;;56.40;29.02;;;17.90;99.90;;;;;;4936609;29;20414;-71
2023/12/24 07:06:34;;;;;;;54.33;29.50;;;17.80;99.90;;;;;;4927760;29;20624;-71
2023/12/24 07:08:59;;;;;;;55.80;29.00;;;17.80;99.90;;;;;;4927800;29;20138;-71
2023/12/24 07:11:25;;;;;;;60.15;31.13;;;16.80;99.90;;;;;;4931084;29;20075;-72
2023/12/24 07:13:50;;;;;;;54.85;30.10;;;16.70;99.90;;;;;;4947380;29;20579;-71
2023/12/24 07:16:16;;;;;;;57.60;30.17;;;17.30;99.90;;;;;;4948200;29;20406;-72
2023/12/24 07:18:42;;;;;;;60.80;30.80;;;17.10;99.90;;;;;;4946415;28;20056;-71
2023/12/24 07:21:07;;;;;;;59.10;30.48;;;17.80;99.90;;;;;;4947704;29;20513;-72
2023/12/24 07:23:33;;;;;;;64.60;30.20;;;17.90;99.90;;;;;;4945262;29;20040;-71
2023/12/24 07:25:58;;;;;;;51.60;29.88;;;17.90;99.90;;;;;;4946522;29;20051;-72
2023/12/24 07:28:24;;;;;;;58.50;30.30;;;16.90;99.90;;;;;;4945937;29;20574;-71
2023/12/24 07:30:49;;;;;;;55.03;28.80;;;17.00;99.90;;;;;;4932726;29;20565;-72
2023/12/24 07:33:15;;;;;;;65.50;30.23;;;17.40;99.90;;;;;;4929569;29;20548;-71
2023/12/24 07:35:41;;;;;;;52.17;29.90;;;17.00;99.90;;;;;;4939754;29;20066;-71
2023/12/24 07:38:06;;;;;;;49.60;28.65;;;17.00;99.90;;;;;;4947349;29;20039;-72
2023/12/24 07:40:32;;;;;;;58.53;29.42;;;16.90;99.90;;;;;;4946212;29;20050;-72
2023/12/24 07:42:59;;;;;;;60.20;29.83;;;17.10;99.90;;;;;;4944798;28;20031;-72
2023/12/24 07:45:26;;;;;;;60.22;29.20;;;17.00;99.90;;;;;;4947311;28;20054;-70
2023/12/24 07:47:52;;;;;;;59.72;29.33;;;16.60;99.90;;;;;;4945832;29;20055;-72
2023/12/24 07:50:17;;;;;;;70.78;30.33;;;16.70;99.90;;;;;;4945548;29;20081;-71
2023/12/24 07:52:43;;;;;;;58.35;29.88;;;17.90;99.90;;;;;;4946031;29;20122;-71
2023/12/24 07:55:09;;;;;;;60.03;29.30;;;17.60;99.90;;;;;;4944449;29;20054;-72
2023/12/24 07:57:34;;;;;;;57.88;29.30;;;17.90;99.90;;;;;;4943829;29;20043;-71
2023/12/24 08:00:00;;;;;;;52.63;28.00;;;17.70;99.90;;;;;;4937509;29;20050;-71
2023/12/24 08:02:26;;;;;;;56.53;28.55;;;17.90;99.90;;;;;;4944363;29;20047;-71
2023/12/24 08:04:54;;;;;;;56.78;28.92;;;17.60;99.90;;;;;;4944839;29;20514;-71
2023/12/24 08:07:20;;;;;;;58.00;28.38;;;16.50;99.90;;;;;;4944940;29;20051;-71
2023/12/24 08:09:46;;;;;;;48.45;29.05;;;16.90;99.90;;;;;;4946977;28;20086;-72
2023/12/24 08:12:11;;;;;;;56.58;29.45;;;17.60;99.90;;;;;;4946826;28;20075;-72
2023/12/24 08:14:37;;;;;;;52.38;29.08;;;16.90;99.90;;;;;;4945284;29;20501;-72
2023/12/24 08:17:03;;;;;;;56.60;31.10;;;17.10;99.90;;;;;;4945744;29;20043;-70
2023/12/24 08:19:28;;;;;;;52.15;30.30;;;16.90;99.90;;;;;;4944797;28;20168;-72
2023/12/24 08:21:54;;;;;;;58.35;31.13;;;17.00;99.90;;;;;;4943125;29;20095;-73
2023/12/24 08:24:19;;;;;;;58.90;31.17;;;17.30;99.90;;;;;;4926715;29;20627;-71
2023/12/24 08:26:45;;;;;;;58.95;30.50;;;17.70;99.90;;;;;;4946008;28;20472;-71
2023/12/24 08:29:11;;;;;;;52.70;29.45;;;17.50;99.90;;;;;;4949187;29;20069;-72
2023/12/24 08:31:36;;;;;;;54.17;30.20;;;17.50;99.90;;;;;;4949609;29;20051;-70
2023/12/24 08:34:02;;;;;;;59.53;30.48;;;17.60;99.90;;;;;;4947877;29;20039;-72
2023/12/24 08:36:28;;;;;;;57.13;29.77;;;18.10;99.90;;;;;;4948453;29;20043;-71
2023/12/24 08:38:54;;;;;;;55.40;29.58;;;17.30;99.90;;;;;;4932926;29;20058;-72
2023/12/24 08:41:19;;;;;;;55.28;29.73;;;16.90;99.90;;;;;;4949969;28;20118;-72
2023/12/24 08:43:45;;;;;;;58.30;29.35;;;17.80;99.90;;;;;;4949360;29;20122;-71
2023/12/24 08:46:11;;;;;;;47.05;28.55;;;17.80;99.90;;;;;;4948463;29;20118;-72
2023/12/24 08:48:37;;;;;;;47.63;29.63;;;16.90;99.90;;;;;;4948518;29;20043;-71
2023/12/24 08:51:04;;;;;;;59.63;30.48;;;17.30;99.90;;;;;;4949753;28;20079;-72
2023/12/24 08:53:29;;;;;;;51.28;30.35;;;17.90;99.90;;;;;;4949247;28;20046;-71
2023/12/24 08:55:55;;;;;;;53.03;29.30;;;17.50;99.90;;;;;;4948146;29;20702;-72
2023/12/24 08:58:20;;;;;;;56.40;30.33;;;18.10;99.90;;;;;;4948209;29;20039;-72
2023/12/24 09:00:46;;;;;;;47.60;28.17;;;17.20;99.90;;;;;;4948786;29;20043;-71
2023/12/24 09:03:12;;;;;;;56.53;29.52;;;17.10;99.90;;;;;;4947720;29;20043;-72
2023/12/24 09:05:37;;;;;;;50.80;29.83;;;18.30;99.90;;;;;;4948374;29;20078;-71
2023/12/24 09:08:03;;;;;;;54.03;31.55;;;17.90;99.90;;;;;;4949768;29;20110;-72
2023/12/24 09:10:29;;;;;;;45.45;29.30;;;17.30;99.90;;;;;;4948739;29;20146;-71
2023/12/24 09:12:55;;;;;;;45.58;28.45;;;18.10;99.90;;;;;;4948320;29;20879;-71
2023/12/24 09:15:21;;;;;;;49.53;29.40;;;17.60;99.90;;;;;;4948386;29;20413;-71
2023/12/24 09:17:46;;;;;;;58.95;29.15;;;17.60;99.90;;;;;;4948232;28;20059;-71
2023/12/24 09:20:12;;;;;;;50.55;29.48;;;17.20;99.90;;;;;;4945396;29;20075;-73
2023/12/24 09:22:37;;;;;;;48.95;27.88;;;17.90;99.90;;;;;;4945550;29;20047;-72
2023/12/24 09:25:04;;;;;;;49.13;27.75;;;16.90;99.90;;;;;;4946708;29;20102;-72
2023/12/24 09:27:30;;;;;;;50.53;28.27;;;18.00;99.90;;;;;;4947415;29;20465;-71
2023/12/24 09:29:55;;;;;;;46.60;27.90;;;16.90;99.90;;;;;;4947260;29;20047;-70
2023/12/24 09:32:21;;;;;;;49.50;27.30;;;17.90;99.90;;;;;;4948621;29;20053;-72
2023/12/24 09:34:47;;;;;;;48.20;27.13;;;17.60;99.90;;;;;;4946943;29;20082;-73
2023/12/24 09:37:12;;;;;;;43.08;27.63;;;17.40;99.90;;;;;;4949100;28;20044;-71
2023/12/24 09:39:38;;;;;;;55.45;27.52;;;17.10;99.90;;;;;;4946970;29;20094;-72
2023/12/24 09:42:07;;;;;;;42.88;26.45;;;17.70;99.90;;;;;;4945498;29;20785;-71
2023/12/24 09:44:34;;;;;;;42.90;27.17;;;17.80;99.90;;;;;;4927756;29;20047;-71
2023/12/24 09:46:59;;;;;;;48.00;27.02;;;16.90;99.90;;;;;;4947356;29;20047;-71
2023/12/24 09:49:25;;;;;;;45.97;25.77;;;16.70;99.90;;;;;;4947293;29;20505;-72
2023/12/24 09:51:52;;;;;;;43.13;25.70;;;17.80;99.90;;;;;;4946458;29;20051;-72
2023/12/24 09:54:18;;;;;;;52.97;26.60;;;18.70;99.90;;;;;;4947074;29;20043;-71
2023/12/24 09:56:43;;;;;;;48.95;26.27;;;18.00;99.90;;;;;;4946813;29;20138;-71
2023/12/24 09:59:09;;;;;;;54.05;27.42;;;17.80;99.90;;;;;;4947149;29;20125;-72
2023/12/24 10:01:43;;;;;;;42.58;27.38;;;18.20;99.90;;;;;;4946814;29;20466;-71
2023/12/24 10:04:09;;;;;;;47.00;28.23;;;18.10;99.90;;;;;;4931992;29;20043;-71
2023/12/24 10:06:54;;;;;;;46.15;26.33;;;17.60;99.90;;;;;;4947404;29;20413;-71
2023/12/24 10:09:23;;;;;;;50.17;27.35;;;18.10;99.90;;;;;;4944734;29;20055;-71
2023/12/24 10:12:05;;;;;;;53.60;28.05;;;18.10;99.90;;;;;;4946260;29;20409;-71
2023/12/24 10:14:31;;;;;;;44.67;26.23;;;18.40;99.90;;;;;;4946593;28;20474;-71
2023/12/24 10:17:01;;;;;;;49.10;26.42;;;17.10;99.90;;;;;;4947715;29;20130;-71
2023/12/24 10:19:27;;;;;;;45.65;26.45;;;17.10;99.90;;;;;;4945967;29;20147;-71
2023/12/24 10:22:06;;;;;;;40.53;25.52;;;17.80;99.90;;;;;;4930552;29;20138;-72
2023/12/24 10:24:43;;;;;;;44.83;26.73;;;17.00;99.90;;;;;;4940259;29;20095;-72
2023/12/24 10:27:14;;;;;;;51.30;25.60;;;17.30;99.90;;;;;;4947202;29;20146;-71
2023/12/24 10:29:41;;;;;;;44.08;27.05;;;17.70;99.90;;;;;;4946174;29;20051;-72
2023/12/24 10:32:10;;;;;;;50.58;27.30;;;16.80;99.90;;;;;;4945441;29;20046;-71
2023/12/24 10:34:37;;;;;;;50.53;26.77;;;17.00;99.90;;;;;;4946607;29;20480;-71
2023/12/24 10:37:21;;;;;;;56.55;26.70;;;17.20;99.90;;;;;;4946710;29;20042;-71
2023/12/24 10:39:49;;;;;;;59.08;29.20;;;17.60;99.90;;;;;;4945395;29;20050;-72
2023/12/24 10:42:15;;;;;;;48.00;28.50;;;17.50;99.90;;;;;;4946570;28;20498;-71
2023/12/24 10:44:41;;;;;;;41.72;27.27;;;18.10;99.90;;;;;;4947906;28;20098;-70
2023/12/24 10:47:07;;;;;;;53.10;27.92;;;18.20;99.90;;;;;;4947002;29;20118;-71
2023/12/24 10:49:34;;;;;;;52.20;28.38;;;17.10;99.90;;;;;;4946171;28;20661;-72
2023/12/24 10:51:59;;;;;;;51.85;26.95;;;17.20;99.90;;;;;;4946637;29;20127;-72
2023/12/24 10:54:27;;;;;;;47.10;26.55;;;17.60;99.90;;;;;;4946384;29;20150;-72
2023/12/24 10:57:12;;;;;;;64.22;28.30;;;17.00;99.90;;;;;;4947050;29;20521;-71
2023/12/24 10:59:52;;;;;;;48.22;28.40;;;18.20;99.90;;;;;;4959140;28;20152;-70
2023/12/24 11:02:18;;;;;;;55.83;29.63;;;17.20;99.90;;;;;;4944833;29;20561;-72
2023/12/24 11:04:45;;;;;;;47.85;29.13;;;17.90;99.90;;;;;;4946319;29;20194;-72
2023/12/24 11:07:32;;;;;;;53.10;28.60;;;17.70;99.90;;;;;;4945986;29;20696;-72
2023/12/24 11:09:58;;;;;;;52.20;28.05;;;18.70;99.90;;;;;;4959494;28;20054;-72
2023/12/24 11:12:34;;;;;;;49.40;29.58;;;18.10;99.90;;;;;;4946885;29;20055;-71
2023/12/24 11:15:01;;;;;;;45.88;27.70;;;17.50;99.90;;;;;;4946125;29;20568;-71
2023/12/24 11:17:33;;;;;;;46.47;26.30;;;18.30;99.90;;;;;;4946803;28;20039;-71
2023/12/24 11:20:24;;;;;;;53.60;28.05;;;18.40;99.90;;;;;;4961651;28;20090;-71
2023/12/24 11:23:06;;;;;;;49.97;29.15;;;17.80;99.90;;;;;;4960353;28;20051;-70
2023/12/24 11:25:41;;;;;;;56.35;28.65;;;18.50;99.90;;;;;;4947875;29;20051;-71
2023/12/24 11:28:13;;;;;;;52.00;29.38;;;18.40;99.90;;;;;;4946179;29;20039;-71
2023/12/24 11:30:50;;;;;;;66.32;30.17;;;18.80;99.90;;;;;;4944768;29;20079;-71
2023/12/24 11:33:28;;;;;;;52.33;29.27;;;18.70;99.90;;;;;;4945397;29;20049;-70
2023/12/24 11:35:56;;;;;;;49.85;28.17;;;18.40;99.90;;;;;;4945347;29;20050;-72
2023/12/24 11:38:34;;;;;;;52.85;27.83;;;18.70;99.90;;;;;;4945851;29;20047;-70
2023/12/24 11:41:14;;;;;;;54.95;28.33;;;18.70;99.90;;;;;;4929858;29;20169;-71
2023/12/24 11:43:42;;;;;;;52.65;27.73;;;17.80;99.90;;;;;;4941142;29;20043;-71
2023/12/24 11:46:11;;;;;;;58.97;30.13;;;17.30;99.90;;;;;;4946293;29;20500;-71
2023/12/24 11:48:37;;;;;;;53.90;29.10;;;17.60;99.90;;;;;;4915225;29;20039;-72
2023/12/24 11:51:07;;;;;;;54.95;29.33;;;18.00;99.90;;;;;;4946623;29;20272;-72
2023/12/24 11:53:34;;;;;;;48.47;28.50;;;17.90;99.90;;;;;;4946705;28;20035;-71
2023/12/24 11:56:04;;;;;;;47.80;26.98;;;18.70;99.90;;;;;;4946097;29;20043;-71
2023/12/24 11:58:29;;;;;;;56.42;28.15;;;18.00;99.90;;;;;;4945515;29;20109;-70
2023/12/24 12:00:58;;;;;;;51.03;27.75;;;17.50;99.90;;;;;;4947819;28;20043;-71
2023/12/24 12:03:24;;;;;;;50.15;28.08;;;18.40;99.90;;;;;;4948151;29;20048;-72
2023/12/24 12:05:49;;;;;;;63.03;29.95;;;18.60;99.90;;;;;;4948368;29;20062;-71
2023/12/24 12:08:15;;;;;;;52.05;29.55;;;17.50;99.90;;;;;;4948419;29;20047;-70
2023/12/24 12:10:41;;;;;;;50.97;28.77;;;17.70;99.90;;;;;;4949424;29;20051;-70
2023/12/24 12:13:06;;;;;;;50.53;29.23;;;18.70;99.90;;;;;;4947955;28;20046;-72
2023/12/24 12:15:32;;;;;;;52.63;29.55;;;19.40;99.90;;;;;;4948461;29;20050;-72
2023/12/24 12:17:57;;;;;;;52.10;28.35;;;18.70;99.90;;;;;;4948999;28;20083;-72
2023/12/24 12:20:23;;;;;;;51.20;29.60;;;18.40;99.90;;;;;;4947932;29;20129;-72
2023/12/24 12:22:50;;;;;;;51.97;28.42;;;18.50;99.90;;;;;;4947315;29;20481;-71
2023/12/24 12:25:16;;;;;;;51.45;30.15;;;17.70;99.90;;;;;;4948805;29;20058;-70